createdAt,value
2023-05-22T00:00:18.798Z,14.05
2023-05-22T00:02:45.845Z,16.15
2023-05-22T00:05:14.691Z,17.27
2023-05-22T00:07:44.219Z,20.05
2023-05-22T00:10:11.401Z,17.15
2023-05-22T00:12:38.302Z,19.75
2023-05-22T00:15:07.742Z,18.13
2023-05-22T00:17:34.621Z,18.63
2023-05-22T00:20:08.025Z,17.08
2023-05-22T00:22:35.515Z,16.75
2023-05-22T00:25:02.830Z,19.65
2023-05-22T00:27:29.532Z,21.63
2023-05-22T00:29:56.335Z,21.77
2023-05-22T00:32:24.939Z,22.02
2023-05-22T00:34:51.712Z,25.77
2023-05-22T00:37:19.713Z,32.55
2023-05-22T00:39:46.678Z,24.25
2023-05-22T00:42:13.780Z,27.23
2023-05-22T00:44:42.034Z,24.27
2023-05-22T00:47:08.775Z,21.02
2023-05-22T00:49:36.871Z,21.77
2023-05-22T00:52:03.885Z,23.50
2023-05-22T00:54:33.542Z,20.92
2023-05-22T00:57:01.640Z,18.27
2023-05-22T00:59:29.714Z,19.35
2023-05-22T01:01:57.685Z,17.38
2023-05-22T01:04:25.277Z,17.77
2023-05-22T01:06:54.082Z,17.73
2023-05-22T01:09:20.834Z,15.98
2023-05-22T01:11:55.709Z,15.82
2023-05-22T01:14:30.093Z,14.32
2023-05-22T01:17:08.887Z,14.35
2023-05-22T01:19:54.225Z,17.98
2023-05-22T01:22:36.118Z,17.73
2023-05-22T01:25:21.157Z,16.42
2023-05-22T01:28:22.822Z,13.20
2023-05-22T01:31:01.354Z,14.15
2023-05-22T01:33:34.033Z,18.38
2023-05-22T01:36:02.586Z,16.45
2023-05-22T01:38:30.558Z,16.58
2023-05-22T01:40:58.395Z,16.40
2023-05-22T01:43:25.415Z,15.77
2023-05-22T01:45:53.979Z,18.05
2023-05-22T01:48:20.722Z,14.55
2023-05-22T01:50:51.203Z,17.05
2023-05-22T01:53:24.168Z,13.52
2023-05-22T01:55:57.908Z,15.60
2023-05-22T01:58:30.764Z,13.27
2023-05-22T02:01:00.981Z,14.68
2023-05-22T02:03:31.734Z,14.43
2023-05-22T02:06:03.681Z,15.73
2023-05-22T02:08:35.903Z,16.70
2023-05-22T02:11:04.544Z,14.40
2023-05-22T02:13:31.444Z,17.17
2023-05-22T02:15:59.814Z,16.20
2023-05-22T02:18:29.564Z,16.10
2023-05-22T02:20:56.430Z,16.80
2023-05-22T02:23:23.337Z,15.10
2023-05-22T02:25:50.234Z,16.02
2023-05-22T02:28:17.062Z,16.50
2023-05-22T02:30:43.799Z,19.50
2023-05-22T02:33:11.929Z,17.83
2023-05-22T02:35:38.639Z,19.95
2023-05-22T02:38:05.649Z,17.90
2023-05-22T02:40:32.364Z,16.92
2023-05-22T02:42:59.168Z,16.67
2023-05-22T02:45:26.010Z,15.90
2023-05-22T02:47:52.774Z,13.75
2023-05-22T02:50:21.177Z,12.90
2023-05-22T02:52:47.913Z,13.02
2023-05-22T02:55:14.659Z,16.83
2023-05-22T02:57:41.425Z,14.77
2023-05-22T03:00:11.668Z,14.75
2023-05-22T03:02:38.928Z,12.88
2023-05-22T03:05:07.077Z,15.20
2023-05-22T03:07:37.191Z,15.00
2023-05-22T03:10:04.339Z,14.20
2023-05-22T03:12:31.099Z,14.50
2023-05-22T03:14:57.859Z,14.85
2023-05-22T03:17:24.665Z,16.73
2023-05-22T03:19:51.442Z,13.95
2023-05-22T03:22:18.743Z,15.23
2023-05-22T03:24:46.925Z,13.43
2023-05-22T03:27:17.262Z,13.35
2023-05-22T03:29:44.354Z,15.75
2023-05-22T03:32:11.245Z,15.40
2023-05-22T03:34:38.166Z,13.75
2023-05-22T03:37:04.969Z,13.65
2023-05-22T03:39:31.669Z,16.40
2023-05-22T03:41:59.781Z,14.93
2023-05-22T03:44:26.481Z,15.30
2023-05-22T03:46:53.175Z,15.90
2023-05-22T03:49:19.921Z,14.45
2023-05-22T03:51:46.599Z,15.43
2023-05-22T03:54:13.336Z,14.77
2023-05-22T03:56:40.068Z,14.63
2023-05-22T03:59:08.069Z,16.35
2023-05-22T04:01:34.824Z,15.05
2023-05-22T04:04:02.076Z,14.13
2023-05-22T04:06:32.827Z,15.27
2023-05-22T04:09:00.473Z,16.20
2023-05-22T04:11:27.191Z,14.70
2023-05-22T04:13:54.073Z,16.23
2023-05-22T04:16:23.376Z,15.32
2023-05-22T04:18:50.217Z,16.70
2023-05-22T04:21:17.548Z,17.88
2023-05-22T04:23:44.607Z,16.15
2023-05-22T04:26:11.421Z,15.80
2023-05-22T04:28:38.167Z,13.13
2023-05-22T04:31:06.838Z,14.13
2023-05-22T04:33:35.034Z,15.40
2023-05-22T04:36:02.835Z,13.70
2023-05-22T04:38:29.797Z,13.38
2023-05-22T04:40:56.816Z,16.90
2023-05-22T04:43:26.745Z,14.57
2023-05-22T04:45:54.849Z,16.77
2023-05-22T04:48:22.531Z,17.33
2023-05-22T04:50:50.792Z,15.65
2023-05-22T04:53:17.703Z,17.52
2023-05-22T04:55:44.620Z,15.82
2023-05-22T04:58:11.434Z,14.80
2023-05-22T05:00:38.550Z,15.70
2023-05-22T05:03:08.086Z,16.30
2023-05-22T05:05:35.185Z,17.95
2023-05-22T05:08:03.353Z,14.77
2023-05-22T05:10:30.122Z,14.10
2023-05-22T05:12:56.953Z,19.35
2023-05-22T05:15:23.938Z,12.55
2023-05-22T05:17:51.112Z,17.65
2023-05-22T05:20:17.983Z,16.83
2023-05-22T05:22:46.128Z,18.17
2023-05-22T05:25:14.560Z,24.15
2023-05-22T05:27:41.446Z,18.67
2023-05-22T05:30:09.153Z,19.85
2023-05-22T05:32:36.220Z,14.88
2023-05-22T05:35:03.154Z,16.00
2023-05-22T05:37:29.895Z,13.90
2023-05-22T05:39:56.559Z,15.85
2023-05-22T05:42:24.687Z,13.88
2023-05-22T05:44:51.414Z,19.20
2023-05-22T05:47:18.283Z,22.48
2023-05-22T05:49:45.036Z,18.02
2023-05-22T05:52:11.770Z,19.52
2023-05-22T05:54:38.433Z,17.40
2023-05-22T05:57:06.515Z,18.80
2023-05-22T05:59:34.620Z,17.15
2023-05-22T06:02:01.645Z,14.45
2023-05-22T06:04:28.424Z,13.80
2023-05-22T06:06:55.199Z,18.05
2023-05-22T06:09:22.343Z,19.08
2023-05-22T06:11:49.342Z,23.33
2023-05-22T06:14:16.141Z,21.52
2023-05-22T06:16:45.142Z,21.45
2023-05-22T06:19:12.907Z,24.33
2023-05-22T06:21:39.686Z,27.33
2023-05-22T06:24:07.041Z,20.80
2023-05-22T06:26:33.815Z,20.15
2023-05-22T06:29:00.895Z,18.33
2023-05-22T06:31:28.171Z,26.13
2023-05-22T06:33:56.479Z,19.63
2023-05-22T06:36:23.298Z,20.00
2023-05-22T06:38:50.035Z,18.17
2023-05-22T06:41:17.934Z,22.00
2023-05-22T06:43:44.652Z,28.13
2023-05-22T06:46:11.475Z,22.20
2023-05-22T06:48:38.355Z,21.35
2023-05-22T06:51:06.524Z,20.88
2023-05-22T06:53:33.221Z,19.10
2023-05-22T06:56:00.047Z,18.00
2023-05-22T06:58:29.148Z,17.25
2023-05-22T07:00:56.134Z,18.73
2023-05-22T07:03:22.940Z,17.80
2023-05-22T07:05:49.804Z,17.63
2023-05-22T07:08:17.880Z,16.58
2023-05-22T07:10:44.756Z,14.65
2023-05-22T07:13:11.469Z,20.98
2023-05-22T07:15:38.217Z,15.57
2023-05-22T07:18:05.138Z,14.98
2023-05-22T07:20:32.169Z,15.57
2023-05-22T07:22:58.885Z,21.67
2023-05-22T07:25:26.918Z,20.85
2023-05-22T07:27:53.696Z,18.20
2023-05-22T07:30:20.415Z,18.60
2023-05-22T07:32:48.147Z,15.65
2023-05-22T07:35:14.936Z,15.23
2023-05-22T07:37:41.697Z,15.05
2023-05-22T07:40:09.811Z,17.42
2023-05-22T07:42:38.507Z,16.10
2023-05-22T07:45:06.340Z,15.20
2023-05-22T07:47:33.013Z,14.00
2023-05-22T07:49:59.757Z,16.17
2023-05-22T07:52:26.715Z,16.92
2023-05-22T07:54:53.650Z,20.40
2023-05-22T07:57:20.385Z,19.15
2023-05-22T07:59:48.882Z,17.70
2023-05-22T08:02:16.232Z,17.88
2023-05-22T08:04:44.594Z,16.70
2023-05-22T08:07:11.439Z,15.30
2023-05-22T08:09:38.123Z,17.58
2023-05-22T08:12:05.620Z,13.13
2023-05-22T08:14:34.401Z,14.82
2023-05-22T08:17:02.523Z,16.30
2023-05-22T08:19:29.448Z,16.50
2023-05-22T08:21:58.295Z,16.58
2023-05-22T08:24:28.466Z,16.13
2023-05-22T08:26:56.427Z,13.68
2023-05-22T08:29:23.084Z,15.93
2023-05-22T08:31:49.915Z,14.82
2023-05-22T08:34:18.037Z,16.20
2023-05-22T08:36:44.749Z,16.20
2023-05-22T08:39:12.255Z,18.48
2023-05-22T08:41:39.160Z,20.05
2023-05-22T08:44:06.286Z,16.30
2023-05-22T08:46:37.960Z,19.50
2023-05-22T08:49:06.135Z,18.92
2023-05-22T08:51:38.137Z,14.95
2023-05-22T08:54:07.670Z,15.38
2023-05-22T08:56:35.416Z,18.33
2023-05-22T08:59:07.509Z,15.23
2023-05-22T09:01:34.333Z,13.77
2023-05-22T09:04:02.517Z,12.93
2023-05-22T09:06:29.720Z,12.25
2023-05-22T09:08:58.314Z,14.77
2023-05-22T09:11:26.471Z,13.80
2023-05-22T09:13:53.701Z,13.68
2023-05-22T09:16:20.744Z,14.07
2023-05-22T09:18:47.573Z,13.23
2023-05-22T09:21:29.503Z,13.65
2023-05-22T09:24:01.890Z,13.48
2023-05-22T09:26:32.933Z,14.45
2023-05-22T09:29:00.134Z,12.55
2023-05-22T09:31:28.778Z,12.07
2023-05-22T09:33:56.526Z,14.50
2023-05-22T09:36:31.231Z,11.75
2023-05-22T09:39:02.195Z,11.77
2023-05-22T09:41:30.542Z,12.60
2023-05-22T09:43:58.324Z,10.13
2023-05-22T09:46:26.521Z,10.98
2023-05-22T09:48:53.477Z,10.05
2023-05-22T09:51:23.818Z,9.05
2023-05-22T09:53:51.428Z,12.63
2023-05-22T09:56:31.136Z,11.40
2023-05-22T09:59:09.303Z,10.27
2023-05-22T10:01:37.006Z,9.90
2023-05-22T10:04:05.018Z,8.80
2023-05-22T10:06:33.951Z,7.70
2023-05-22T10:09:05.118Z,7.43
2023-05-22T10:11:34.468Z,7.20
2023-05-22T10:14:05.032Z,8.75
2023-05-22T10:16:34.223Z,8.93
2023-05-22T10:19:01.398Z,12.00
2023-05-22T10:21:29.970Z,9.25
2023-05-22T10:23:57.914Z,8.68
2023-05-22T10:26:26.210Z,11.65
2023-05-22T10:29:01.090Z,8.95
2023-05-22T10:31:39.425Z,10.68
2023-05-22T10:34:11.209Z,10.70
2023-05-22T10:36:56.135Z,12.05
2023-05-22T10:39:37.489Z,12.40
2023-05-22T10:42:04.731Z,11.10
2023-05-22T10:44:34.568Z,10.20
2023-05-22T10:47:10.632Z,11.82
2023-05-22T10:49:39.233Z,13.18
2023-05-22T10:52:08.563Z,13.15
2023-05-22T10:54:41.118Z,11.25
2023-05-22T10:57:13.761Z,13.52
2023-05-22T10:59:41.864Z,11.55
2023-05-22T11:02:19.544Z,10.20
2023-05-22T11:04:46.383Z,10.40
2023-05-22T11:07:15.114Z,8.07
2023-05-22T11:09:48.203Z,9.13
2023-05-22T11:12:21.220Z,9.55
2023-05-22T11:14:50.962Z,11.20
2023-05-22T11:17:19.769Z,11.38
2023-05-22T11:19:57.049Z,12.55
2023-05-22T11:22:30.181Z,10.68
2023-05-22T11:24:56.925Z,9.23
2023-05-22T11:27:24.357Z,8.98
2023-05-22T11:29:54.311Z,10.02
2023-05-22T11:32:22.736Z,11.30
2023-05-22T11:34:52.790Z,9.50
2023-05-22T11:37:20.746Z,8.85
2023-05-22T11:39:51.548Z,10.07
2023-05-22T11:42:19.527Z,12.45
2023-05-22T11:44:46.371Z,11.93
2023-05-22T11:47:14.729Z,13.63
2023-05-22T11:49:44.646Z,14.60
2023-05-22T11:52:11.463Z,15.85
2023-05-22T11:54:38.849Z,12.57
2023-05-22T11:57:08.335Z,12.00
2023-05-22T11:59:35.566Z,9.50
2023-05-22T12:02:02.276Z,12.40
2023-05-22T12:04:30.682Z,11.93
2023-05-22T12:06:57.517Z,11.45
2023-05-22T12:09:24.449Z,10.27
2023-05-22T12:11:55.168Z,10.95
2023-05-22T12:14:26.221Z,9.02
2023-05-22T12:16:53.462Z,11.90
2023-05-22T12:19:21.601Z,16.63
2023-05-22T12:21:51.286Z,12.30
2023-05-22T12:24:24.129Z,13.52
2023-05-22T12:26:51.634Z,12.52
2023-05-22T12:29:18.488Z,13.73
2023-05-22T12:31:48.520Z,12.75
2023-05-22T12:34:19.127Z,14.65
2023-05-22T12:36:47.225Z,14.75
2023-05-22T12:39:17.812Z,13.85
2023-05-22T12:41:45.715Z,12.32
2023-05-22T12:44:13.144Z,13.15
2023-05-22T12:46:41.950Z,12.65
2023-05-22T12:49:09.045Z,9.98
2023-05-22T12:51:35.745Z,9.63
2023-05-22T12:54:03.085Z,10.40
2023-05-22T12:56:32.090Z,8.88
2023-05-22T12:58:58.918Z,9.52
2023-05-22T13:01:26.336Z,10.55
2023-05-22T13:03:53.147Z,10.38
2023-05-22T13:06:20.579Z,13.15
2023-05-22T13:08:47.317Z,14.23
2023-05-22T13:11:14.261Z,11.57
2023-05-22T13:13:42.325Z,12.05
2023-05-22T13:16:10.439Z,12.32
2023-05-22T13:18:37.529Z,13.02
2023-05-22T13:21:04.826Z,12.20
2023-05-22T13:23:32.663Z,11.50
2023-05-22T13:26:01.963Z,13.23
2023-05-22T13:28:29.396Z,11.90
2023-05-22T13:30:57.596Z,12.32
2023-05-22T13:33:25.813Z,11.70
2023-05-22T13:35:52.628Z,10.98
2023-05-22T13:38:19.675Z,10.02
2023-05-22T13:40:48.295Z,10.85
2023-05-22T13:43:15.804Z,11.77
2023-05-22T13:45:42.858Z,10.75
2023-05-22T13:48:12.236Z,10.82
2023-05-22T13:50:38.960Z,10.73
2023-05-22T13:53:06.038Z,12.40
2023-05-22T13:55:32.809Z,13.80
2023-05-22T13:57:59.497Z,13.15
2023-05-22T14:00:26.192Z,11.82
2023-05-22T14:02:53.127Z,10.05
2023-05-22T14:05:21.835Z,11.25
2023-05-22T14:07:48.801Z,13.90
2023-05-22T14:10:15.823Z,12.43
2023-05-22T14:12:42.545Z,11.07
2023-05-22T14:15:10.231Z,10.15
2023-05-22T14:17:38.661Z,11.13
2023-05-22T14:20:07.227Z,9.70
2023-05-22T14:22:47.966Z,9.88
2023-05-22T14:25:22.090Z,14.48
2023-05-22T14:27:48.754Z,10.27
2023-05-22T14:30:15.533Z,10.32
2023-05-22T14:32:43.180Z,9.40
2023-05-22T14:35:10.169Z,9.00
2023-05-22T14:37:40.951Z,13.60
2023-05-22T14:40:09.208Z,14.93
2023-05-22T14:42:36.822Z,11.30
2023-05-22T14:45:03.644Z,11.15
2023-05-22T14:47:30.376Z,10.05
2023-05-22T14:50:03.137Z,10.73
2023-05-22T14:52:45.140Z,12.73
2023-05-22T14:55:11.961Z,15.43
2023-05-22T14:57:38.732Z,11.35
2023-05-22T15:00:08.814Z,13.35
2023-05-22T15:02:36.641Z,12.07
2023-05-22T15:05:04.523Z,12.88
2023-05-22T15:07:43.265Z,14.68
2023-05-22T15:10:13.743Z,13.75
2023-05-22T15:12:40.511Z,14.27
2023-05-22T15:15:08.453Z,12.73
2023-05-22T15:17:35.324Z,13.20
2023-05-22T15:20:02.054Z,11.27
2023-05-22T15:22:28.733Z,12.15
2023-05-22T15:25:06.276Z,11.55
2023-05-22T15:27:35.364Z,13.10
2023-05-22T15:30:02.202Z,11.07
2023-05-22T15:32:30.706Z,9.73
2023-05-22T15:34:57.564Z,11.50
2023-05-22T15:37:24.334Z,11.55
2023-05-22T15:39:51.329Z,9.88
2023-05-22T15:42:18.211Z,8.95
2023-05-22T15:44:46.666Z,10.32
2023-05-22T15:47:13.515Z,11.50
2023-05-22T15:49:41.120Z,11.20
2023-05-22T15:52:07.857Z,10.55
2023-05-22T15:54:35.975Z,9.05
2023-05-22T15:57:03.187Z,9.52
2023-05-22T15:59:29.973Z,12.10
2023-05-22T16:01:57.949Z,11.00
2023-05-22T16:04:24.680Z,8.88
2023-05-22T16:06:51.715Z,8.27
2023-05-22T16:09:19.578Z,8.63
2023-05-22T16:11:46.474Z,8.40
2023-05-22T16:14:13.558Z,6.28
2023-05-22T16:16:40.853Z,4.68
2023-05-22T16:19:11.392Z,5.68
2023-05-22T16:21:42.073Z,6.80
2023-05-22T16:24:10.850Z,4.60
2023-05-22T16:26:40.187Z,5.07
2023-05-22T16:29:08.510Z,4.90
2023-05-22T16:31:35.767Z,5.32
2023-05-22T16:34:03.085Z,4.90
2023-05-22T16:36:31.844Z,4.82
2023-05-22T16:38:58.701Z,5.90
2023-05-22T16:41:26.871Z,5.18
2023-05-22T16:43:53.682Z,7.32
2023-05-22T16:46:22.950Z,5.68
2023-05-22T16:48:50.446Z,4.43
2023-05-22T16:51:17.399Z,4.88
2023-05-22T16:53:47.155Z,4.13
2023-05-22T16:56:14.591Z,5.32
2023-05-22T16:58:41.347Z,4.40
2023-05-22T17:01:08.546Z,4.10
2023-05-22T17:03:35.992Z,4.32
2023-05-22T17:06:03.234Z,3.78
2023-05-22T17:08:29.979Z,3.42
2023-05-22T17:10:58.067Z,3.10
2023-05-22T17:13:24.776Z,3.97
2023-05-22T17:15:51.731Z,3.63
2023-05-22T17:18:20.872Z,4.60
2023-05-22T17:20:48.097Z,4.05
2023-05-22T17:23:15.815Z,4.05
2023-05-22T17:25:43.033Z,4.45
2023-05-22T17:28:14.633Z,3.03
2023-05-22T17:30:42.330Z,3.85
2023-05-22T17:33:09.834Z,2.83
2023-05-22T17:35:36.720Z,3.08
2023-05-22T17:38:07.427Z,4.75
2023-05-22T17:40:44.066Z,5.72
2023-05-22T17:43:13.910Z,5.38
2023-05-22T17:45:41.572Z,3.30
2023-05-22T17:48:08.694Z,4.47
2023-05-22T17:50:35.491Z,5.05
2023-05-22T17:53:02.281Z,4.85
2023-05-22T17:55:28.947Z,4.07
2023-05-22T17:57:56.133Z,4.45
2023-05-22T18:00:24.418Z,4.63
2023-05-22T18:02:51.244Z,4.22
2023-05-22T18:05:19.810Z,3.55
2023-05-22T18:07:46.817Z,4.25
2023-05-22T18:10:13.495Z,4.32
2023-05-22T18:12:40.204Z,4.00
2023-05-22T18:15:09.861Z,5.45
2023-05-22T18:17:38.110Z,4.30
2023-05-22T18:20:07.465Z,4.88
2023-05-22T18:22:37.158Z,4.30
2023-05-22T18:25:04.664Z,5.38
2023-05-22T18:27:31.478Z,5.78
2023-05-22T18:29:58.250Z,4.35
2023-05-22T18:32:25.340Z,5.30
2023-05-22T18:34:53.433Z,5.30
2023-05-22T18:37:20.215Z,5.55
2023-05-22T18:39:47.589Z,4.85
2023-05-22T18:42:14.719Z,6.00
2023-05-22T18:44:41.705Z,4.95
2023-05-22T18:47:09.566Z,4.57
2023-05-22T18:49:36.235Z,4.22
2023-05-22T18:52:04.671Z,4.45
2023-05-22T18:54:31.774Z,4.82
2023-05-22T18:56:58.465Z,5.53
2023-05-22T18:59:25.113Z,4.32
2023-05-22T19:01:51.764Z,3.65
2023-05-22T19:04:18.428Z,4.97
2023-05-22T19:06:45.938Z,4.78
2023-05-22T19:09:14.263Z,5.38
2023-05-22T19:11:40.990Z,3.67
2023-05-22T19:14:07.778Z,3.65
2023-05-22T19:16:34.575Z,5.38
2023-05-22T19:19:01.557Z,4.10
2023-05-22T19:21:28.318Z,3.70
2023-05-22T19:23:55.313Z,4.47
2023-05-22T19:26:23.555Z,4.82
2023-05-22T19:28:50.351Z,4.25
2023-05-22T19:31:17.663Z,5.55
2023-05-22T19:33:44.398Z,4.40
2023-05-22T19:36:11.082Z,4.70
2023-05-22T19:38:37.816Z,4.82
2023-05-22T19:41:04.535Z,4.40
2023-05-22T19:43:32.853Z,4.55
2023-05-22T19:45:59.603Z,4.53
2023-05-22T19:48:27.142Z,3.95
2023-05-22T19:50:55.033Z,4.22
2023-05-22T19:53:21.755Z,3.95
2023-05-22T19:55:49.923Z,4.07
2023-05-22T19:58:17.132Z,5.22
2023-05-22T20:00:47.104Z,4.80
2023-05-22T20:03:13.876Z,4.63
2023-05-22T20:05:41.613Z,5.22
2023-05-22T20:08:10.205Z,4.15
2023-05-22T20:10:36.888Z,4.70
2023-05-22T20:13:05.162Z,3.65
2023-05-22T20:15:33.077Z,5.40
2023-05-22T20:18:02.562Z,6.05
2023-05-22T20:20:29.465Z,4.65
2023-05-22T20:22:58.937Z,4.15
2023-05-22T20:25:25.643Z,3.88
2023-05-22T20:27:52.351Z,3.58
2023-05-22T20:30:19.148Z,4.28
2023-05-22T20:32:46.814Z,4.72
2023-05-22T20:35:18.500Z,4.20
2023-05-22T20:37:46.181Z,5.03
2023-05-22T20:40:13.720Z,5.13
2023-05-22T20:42:42.490Z,7.07
2023-05-22T20:45:14.874Z,6.30
2023-05-22T20:47:43.045Z,6.53
2023-05-22T20:50:11.189Z,7.57
2023-05-22T20:52:39.548Z,8.93
2023-05-22T20:55:07.426Z,8.00
2023-05-22T20:57:34.448Z,9.52
2023-05-22T21:00:01.506Z,7.93
2023-05-22T21:02:28.363Z,10.70
2023-05-22T21:04:55.121Z,8.77
2023-05-22T21:07:21.860Z,10.13
2023-05-22T21:09:50.007Z,8.18
2023-05-22T21:12:17.001Z,8.65
2023-05-22T21:14:44.227Z,8.75
2023-05-22T21:17:10.920Z,8.30
2023-05-22T21:19:37.880Z,9.07
2023-05-22T21:22:04.855Z,8.20
2023-05-22T21:24:32.828Z,9.75
2023-05-22T21:27:00.969Z,10.55
2023-05-22T21:29:27.703Z,10.75
2023-05-22T21:31:54.503Z,11.15
2023-05-22T21:34:21.414Z,9.20
2023-05-22T21:36:49.919Z,8.23
2023-05-22T21:39:16.768Z,12.00
2023-05-22T21:41:43.413Z,8.00
2023-05-22T21:44:11.839Z,7.05
2023-05-22T21:46:38.575Z,6.63
2023-05-22T21:49:06.329Z,7.90
2023-05-22T21:51:33.094Z,7.25
2023-05-22T21:53:59.799Z,6.15
2023-05-22T21:56:27.173Z,5.78
2023-05-22T21:58:54.052Z,6.38
2023-05-22T22:01:22.256Z,6.38
2023-05-22T22:03:49.118Z,5.22
2023-05-22T22:06:16.064Z,5.85
2023-05-22T22:08:42.694Z,6.40
2023-05-22T22:11:09.367Z,5.53
2023-05-22T22:13:36.873Z,5.18
2023-05-22T22:16:03.782Z,5.28
2023-05-22T22:18:33.830Z,4.13
2023-05-22T22:21:02.337Z,7.50
2023-05-22T22:23:29.628Z,5.57
2023-05-22T22:25:56.372Z,4.30
2023-05-22T22:28:23.135Z,4.85
2023-05-22T22:30:49.846Z,5.15
2023-05-22T22:33:16.655Z,4.55
2023-05-22T22:35:44.958Z,4.22
2023-05-22T22:38:14.778Z,6.53
2023-05-22T22:40:41.745Z,5.72
2023-05-22T22:43:08.726Z,4.43
2023-05-22T22:45:35.617Z,3.67
2023-05-22T22:48:03.515Z,5.10
2023-05-22T22:50:30.315Z,3.95
2023-05-22T22:52:58.432Z,6.78
2023-05-22T22:55:25.582Z,5.90
2023-05-22T22:57:56.191Z,4.07
2023-05-22T23:00:23.666Z,4.80
2023-05-22T23:02:50.422Z,4.47
2023-05-22T23:05:20.320Z,5.10
2023-05-22T23:07:47.625Z,5.40
2023-05-22T23:10:17.128Z,5.50
2023-05-22T23:12:43.858Z,5.88
2023-05-22T23:15:13.277Z,7.57
2023-05-22T23:17:40.857Z,8.65
2023-05-22T23:20:11.553Z,7.28
2023-05-22T23:22:38.239Z,6.32
2023-05-22T23:25:05.913Z,9.15
2023-05-22T23:27:34.025Z,4.57
2023-05-22T23:30:00.860Z,6.25
2023-05-22T23:32:27.969Z,5.78
2023-05-22T23:34:54.720Z,5.05
2023-05-22T23:37:21.423Z,7.32
2023-05-22T23:39:48.313Z,5.93
2023-05-22T23:42:15.667Z,5.80
2023-05-22T23:44:43.676Z,5.85
2023-05-22T23:47:10.713Z,10.18
2023-05-22T23:49:37.497Z,7.97
2023-05-22T23:52:04.596Z,8.75
2023-05-22T23:54:31.255Z,10.15
2023-05-22T23:56:57.923Z,6.65
2023-05-22T23:59:24.815Z,10.70
